createdAt,value
2022-08-17T00:03:05.690Z,100399.20
2022-08-17T00:08:19.149Z,100394.56
2022-08-17T00:13:45.806Z,100396.89
2022-08-17T00:19:09.962Z,100399.71
2022-08-17T00:24:38.101Z,100402.77
2022-08-17T00:30:00.378Z,100401.74
2022-08-17T00:35:29.776Z,100401.40
2022-08-17T00:40:49.031Z,100402.38
2022-08-17T00:46:19.536Z,100400.98
2022-08-17T00:51:45.843Z,100406.19
2022-08-17T00:57:21.444Z,100410.01
2022-08-17T01:02:51.084Z,100401.23
2022-08-17T01:08:12.938Z,100398.97
2022-08-17T01:13:44.376Z,100399.43
2022-08-17T01:19:18.554Z,100408.71
2022-08-17T01:24:46.791Z,100409.43
2022-08-17T01:30:00.441Z,100408.69
2022-08-17T01:35:30.954Z,100413.09
2022-08-17T01:41:28.322Z,100413.06
2022-08-17T01:46:58.097Z,100410.00
2022-08-17T01:52:29.888Z,100408.19
2022-08-17T01:57:58.160Z,100405.45
2022-08-17T02:03:28.188Z,100406.91
2022-08-17T02:09:01.773Z,100405.89
2022-08-17T02:14:23.854Z,100404.45
2022-08-17T02:19:44.064Z,100407.67
2022-08-17T02:24:59.509Z,100405.02
2022-08-17T02:30:59.243Z,100397.36
2022-08-17T02:36:11.584Z,100397.53
2022-08-17T02:41:28.618Z,100398.45
2022-08-17T02:46:47.836Z,100402.65
2022-08-17T02:52:16.002Z,100402.04
2022-08-17T02:58:05.181Z,100402.64
2022-08-17T03:03:23.995Z,100401.90
2022-08-17T03:08:47.440Z,100403.96
2022-08-17T03:14:16.809Z,100413.62
2022-08-17T03:19:43.274Z,100414.59
2022-08-17T03:25:13.086Z,100411.30
2022-08-17T03:30:43.527Z,100415.31
2022-08-17T03:36:12.136Z,100422.33
2022-08-17T03:41:32.341Z,100424.25
2022-08-17T03:47:18.321Z,100431.73
2022-08-17T03:53:05.363Z,100440.63
2022-08-17T03:58:32.952Z,100440.30
2022-08-17T04:03:57.169Z,100439.55
2022-08-17T04:09:28.208Z,100441.04
2022-08-17T04:14:51.669Z,100446.73
2022-08-17T04:20:17.574Z,100447.95
2022-08-17T04:25:43.949Z,100449.77
2022-08-17T04:31:04.928Z,100459.13
2022-08-17T04:36:34.507Z,100463.20
2022-08-17T04:42:09.424Z,100463.10
2022-08-17T04:47:37.099Z,100464.04
2022-08-17T04:52:49.585Z,100465.17
2022-08-17T04:58:11.555Z,100464.00
2022-08-17T05:03:39.394Z,100475.21
2022-08-17T05:09:07.901Z,100478.72
2022-08-17T05:14:35.551Z,100469.69
2022-08-17T05:20:03.186Z,100472.16
2022-08-17T05:25:12.141Z,100465.66
2022-08-17T05:30:21.843Z,100468.70
2022-08-17T05:35:51.362Z,100465.35
2022-08-17T05:41:06.785Z,100463.02
2022-08-17T05:46:29.959Z,100467.09
2022-08-17T05:52:08.901Z,100476.05
2022-08-17T05:58:15.775Z,100475.25
2022-08-17T06:03:49.477Z,100479.70
2022-08-17T06:09:26.528Z,100476.59
2022-08-17T06:14:54.559Z,100480.92
2022-08-17T06:20:16.113Z,100485.52
2022-08-17T06:25:31.654Z,100480.69
2022-08-17T06:30:59.337Z,100476.30
2022-08-17T06:36:19.467Z,100482.84
2022-08-17T06:41:37.929Z,100486.55
2022-08-17T06:46:52.605Z,100490.91
2022-08-17T06:52:09.306Z,100489.48
2022-08-17T06:57:29.813Z,100490.71
2022-08-17T07:02:51.890Z,100488.81
2022-08-17T07:08:18.770Z,100488.82
2022-08-17T07:13:39.364Z,100488.13
2022-08-17T07:18:48.075Z,100493.82
2022-08-17T07:24:29.572Z,100498.87
2022-08-17T07:29:42.265Z,100502.10
2022-08-17T07:35:15.379Z,100504.00
2022-08-17T07:40:30.208Z,100507.51
2022-08-17T07:46:00.034Z,100508.58
2022-08-17T07:51:18.427Z,100511.84
2022-08-17T07:56:43.234Z,100515.79
2022-08-17T08:02:06.398Z,100514.67
2022-08-17T08:07:26.656Z,100519.42
2022-08-17T08:12:40.174Z,100520.84
2022-08-17T08:17:54.898Z,100526.56
2022-08-17T08:23:12.618Z,100521.27
2022-08-17T08:28:35.385Z,100517.69
2022-08-17T08:33:56.437Z,100528.39
2022-08-17T08:39:14.537Z,100533.55
2022-08-17T08:45:00.414Z,100533.05
2022-08-17T08:50:36.877Z,100537.86
2022-08-17T08:55:54.101Z,100540.27
2022-08-17T09:01:24.603Z,100542.85
2022-08-17T09:06:46.137Z,100541.71
2022-08-17T09:12:03.924Z,100541.11
2022-08-17T09:17:16.509Z,100539.98
2022-08-17T09:22:33.954Z,100532.83
2022-08-17T09:27:57.611Z,100533.73
2022-08-17T09:33:10.684Z,100529.69
2022-08-17T09:38:26.286Z,100526.03
2022-08-17T09:43:45.003Z,100516.55
2022-08-17T09:48:58.808Z,100514.00
2022-08-17T09:54:38.081Z,100510.98
2022-08-17T10:00:12.137Z,100511.48
2022-08-17T10:05:24.270Z,100512.84
2022-08-17T10:10:43.899Z,100518.08
2022-08-17T10:16:15.014Z,100516.34
2022-08-17T10:22:00.614Z,100513.36
2022-08-17T10:27:23.268Z,100508.80
2022-08-17T10:32:37.086Z,100502.02
2022-08-17T10:37:59.605Z,100499.80
2022-08-17T10:43:32.000Z,100500.34
2022-08-17T10:48:42.899Z,100498.23
2022-08-17T10:54:02.269Z,100499.83
2022-08-17T10:59:09.928Z,100497.85
2022-08-17T11:04:39.488Z,100496.94
2022-08-17T11:10:05.718Z,100492.61
2022-08-17T11:15:38.486Z,100497.36
2022-08-17T11:21:37.903Z,100493.14
2022-08-17T11:26:49.112Z,100493.60
2022-08-17T11:32:08.000Z,100496.22
2022-08-17T11:37:43.359Z,100502.82
2022-08-17T11:43:25.574Z,100497.83
2022-08-17T11:49:00.763Z,100495.31
2022-08-17T11:54:45.014Z,100493.02
2022-08-17T12:00:07.071Z,100488.66
2022-08-17T12:05:35.379Z,100492.54
2022-08-17T12:11:04.916Z,100497.46
2022-08-17T12:16:17.931Z,100496.38
2022-08-17T12:21:41.693Z,100500.92
2022-08-17T12:26:56.897Z,100492.64
2022-08-17T12:32:08.017Z,100495.16
2022-08-17T12:37:20.811Z,100491.61
2022-08-17T12:42:37.763Z,100493.63
2022-08-17T12:48:04.403Z,100497.08
2022-08-17T12:53:17.040Z,100500.17
2022-08-17T12:58:30.147Z,100500.96
2022-08-17T13:03:52.820Z,100494.07
2022-08-17T13:09:13.277Z,100485.31
2022-08-17T13:14:21.108Z,100485.04
2022-08-17T13:19:39.979Z,100476.93
2022-08-17T13:25:04.222Z,100484.69
2022-08-17T13:30:21.196Z,100478.94
2022-08-17T13:35:47.075Z,100476.52
2022-08-17T13:40:58.499Z,100476.94
2022-08-17T13:46:20.148Z,100474.21
2022-08-17T13:51:34.983Z,100479.16
2022-08-17T13:57:22.446Z,100475.86
2022-08-17T14:02:34.235Z,100471.77
2022-08-17T14:07:43.533Z,100474.09
2022-08-17T14:12:52.471Z,100473.36
2022-08-17T14:18:03.065Z,100467.37
2022-08-17T14:23:10.817Z,100463.73
2022-08-17T14:28:19.099Z,100467.40
2022-08-17T14:33:27.426Z,100465.66
2022-08-17T14:38:43.208Z,100466.27
2022-08-17T14:43:54.128Z,100470.71
2022-08-17T14:49:03.333Z,100467.15
2022-08-17T14:54:25.603Z,100460.41
2022-08-17T14:59:59.186Z,100465.19
2022-08-17T15:05:58.581Z,100460.48
2022-08-17T15:11:14.531Z,100460.56
2022-08-17T15:16:29.999Z,100460.05
2022-08-17T15:21:40.049Z,100457.30
2022-08-17T15:27:33.578Z,100455.33
2022-08-17T15:33:13.840Z,100457.77
2022-08-17T15:38:30.244Z,100452.53
2022-08-17T15:43:40.771Z,100452.48
2022-08-17T15:49:03.297Z,100451.14
2022-08-17T15:54:22.871Z,100455.60
2022-08-17T15:59:38.520Z,100459.31
2022-08-17T16:04:50.625Z,100460.70
2022-08-17T16:10:18.694Z,100463.15
2022-08-17T16:15:32.113Z,100461.59
2022-08-17T16:20:46.128Z,100463.67
2022-08-17T16:26:10.469Z,100461.19
2022-08-17T16:31:21.265Z,100460.25
2022-08-17T16:36:35.741Z,100459.88
2022-08-17T16:42:43.162Z,100465.96
2022-08-17T16:47:52.602Z,100466.02
2022-08-17T16:53:11.034Z,100473.94
2022-08-17T16:58:41.610Z,100468.05
2022-08-17T17:04:05.965Z,100475.67
2022-08-17T17:09:34.015Z,100477.83
2022-08-17T17:15:02.035Z,100484.06
2022-08-17T17:20:24.103Z,100482.77
2022-08-17T17:25:48.843Z,100484.96
2022-08-17T17:31:07.307Z,100493.40
2022-08-17T17:36:27.533Z,100497.41
2022-08-17T17:41:43.168Z,100506.66
2022-08-17T17:47:11.348Z,100505.88
2022-08-17T17:52:32.973Z,100503.64
2022-08-17T17:57:58.017Z,100506.41
2022-08-17T18:03:21.358Z,100510.84
2022-08-17T18:08:55.081Z,100516.27
2022-08-17T18:14:26.308Z,100524.13
2022-08-17T18:19:34.298Z,100538.66
2022-08-17T18:24:47.510Z,100546.23
2022-08-17T18:29:56.948Z,100565.40
2022-08-17T18:35:28.568Z,100559.26
2022-08-17T18:40:40.148Z,100551.61
2022-08-17T18:45:51.466Z,100548.77
2022-08-17T18:51:21.625Z,100553.44
2022-08-17T18:56:46.104Z,100554.65
2022-08-17T19:02:16.009Z,100552.48
2022-08-17T19:07:54.532Z,100547.55
2022-08-17T19:13:15.227Z,100544.17
2022-08-17T19:18:48.853Z,100549.80
2022-08-17T19:24:04.871Z,100553.66
2022-08-17T19:29:22.429Z,100560.80
2022-08-17T19:34:40.285Z,100567.11
2022-08-17T19:40:10.459Z,100568.34
2022-08-17T19:45:45.964Z,100560.96
2022-08-17T19:51:09.851Z,100557.53
2022-08-17T19:56:46.436Z,100560.73
2022-08-17T20:02:03.509Z,100564.09
2022-08-17T20:07:19.947Z,100572.08
2022-08-17T20:12:36.409Z,100571.21
2022-08-17T20:17:47.743Z,100561.84
2022-08-17T20:23:05.997Z,100563.42
2022-08-17T20:28:25.332Z,100564.92
2022-08-17T20:33:42.072Z,100563.91
2022-08-17T20:39:00.567Z,100557.35
2022-08-17T20:44:41.782Z,100554.59
2022-08-17T20:50:07.958Z,100561.77
2022-08-17T20:55:53.352Z,100562.80
2022-08-17T21:01:20.290Z,100566.73
2022-08-17T21:06:30.934Z,100569.27
2022-08-17T21:12:05.026Z,100571.39
2022-08-17T21:17:38.769Z,100572.89
2022-08-17T21:23:00.759Z,100581.94
2022-08-17T21:28:33.718Z,100586.17
2022-08-17T21:34:30.645Z,100587.44
2022-08-17T21:39:47.478Z,100590.58
2022-08-17T21:45:21.112Z,100586.63
2022-08-17T21:50:32.323Z,100586.85
2022-08-17T21:55:53.875Z,100583.60
2022-08-17T22:01:27.021Z,100584.30
2022-08-17T22:06:56.723Z,100587.75
2022-08-17T22:12:12.666Z,100587.96
2022-08-17T22:17:46.756Z,100584.39
2022-08-17T22:23:34.691Z,100581.86
2022-08-17T22:28:50.795Z,100580.33
2022-08-17T22:34:16.189Z,100579.66
2022-08-17T22:39:42.073Z,100567.41
2022-08-17T22:44:55.025Z,100565.16
2022-08-17T22:50:06.494Z,100567.27
2022-08-17T22:55:37.026Z,100569.73
2022-08-17T23:00:50.781Z,100578.91
2022-08-17T23:06:10.128Z,100577.84
2022-08-17T23:11:36.892Z,100581.41
2022-08-17T23:17:01.717Z,100576.52
2022-08-17T23:22:12.641Z,100579.99
2022-08-17T23:27:30.755Z,100580.89
2022-08-17T23:32:47.425Z,100581.05
2022-08-17T23:38:15.082Z,100585.96
2022-08-17T23:43:25.761Z,100593.52
2022-08-17T23:48:56.766Z,100599.84
2022-08-17T23:54:12.080Z,100598.44
2022-08-17T23:59:22.458Z,100596.09
